createdAt,value
2022-11-10T00:01:10.666Z,97445.00
2022-11-10T00:03:38.931Z,97440.31
2022-11-10T00:06:06.995Z,97454.00
2022-11-10T00:08:33.818Z,97469.81
2022-11-10T00:11:06.289Z,97473.47
2022-11-10T00:13:35.323Z,97474.97
2022-11-10T00:16:22.849Z,97473.50
2022-11-10T00:18:49.601Z,97476.63
2022-11-10T00:21:17.208Z,97471.94
2022-11-10T00:23:45.816Z,97483.16
2022-11-10T00:26:15.443Z,97473.13
2022-11-10T00:28:42.558Z,97483.72
2022-11-10T00:31:09.385Z,97487.38
2022-11-10T00:33:37.772Z,97497.09
2022-11-10T00:36:04.646Z,97501.97
2022-11-10T00:38:31.111Z,97508.13
2022-11-10T00:40:59.662Z,97508.38
2022-11-10T00:43:26.933Z,97516.59
2022-11-10T00:45:53.582Z,97514.44
2022-11-10T00:48:20.040Z,97524.03
2022-11-10T00:50:46.472Z,97512.09
2022-11-10T00:53:13.741Z,97527.16
2022-11-10T00:55:41.219Z,97538.72
2022-11-10T00:58:08.271Z,97541.56
2022-11-10T01:00:34.844Z,97539.88
2022-11-10T01:03:02.560Z,97543.56
2022-11-10T01:05:30.666Z,97551.84
2022-11-10T01:07:58.311Z,97555.75
2022-11-10T01:10:24.971Z,97553.22
2022-11-10T01:12:51.328Z,97552.69
2022-11-10T01:15:18.198Z,97554.97
2022-11-10T01:17:46.827Z,97549.31
2022-11-10T01:20:13.245Z,97564.69
2022-11-10T01:22:40.604Z,97565.03
2022-11-10T01:25:07.996Z,97558.63
2022-11-10T01:27:34.800Z,97561.47
2022-11-10T01:30:01.390Z,97562.25
2022-11-10T01:32:27.911Z,97571.47
2022-11-10T01:34:54.345Z,97567.38
2022-11-10T01:37:20.765Z,97576.59
2022-11-10T01:39:47.116Z,97577.97
2022-11-10T01:42:13.521Z,97581.13
2022-11-10T01:44:41.434Z,97571.38
2022-11-10T01:47:08.566Z,97569.88
2022-11-10T01:49:35.966Z,97562.28
2022-11-10T01:52:14.596Z,97576.56
2022-11-10T01:54:44.552Z,97576.34
2022-11-10T01:57:13.805Z,97582.22
2022-11-10T01:59:45.046Z,97590.53
2022-11-10T02:02:19.086Z,97587.13
2022-11-10T02:04:45.522Z,97591.22
2022-11-10T02:07:12.160Z,97596.66
2022-11-10T02:09:38.669Z,97588.34
2022-11-10T02:12:05.694Z,97593.03
2022-11-10T02:14:32.278Z,97602.72
2022-11-10T02:16:59.087Z,97589.31
2022-11-10T02:19:26.268Z,97587.28
2022-11-10T02:21:52.658Z,97587.00
2022-11-10T02:24:19.117Z,97581.28
2022-11-10T02:26:50.671Z,97579.72
2022-11-10T02:29:17.178Z,97586.41
2022-11-10T02:31:43.700Z,97587.19
2022-11-10T02:34:10.120Z,97584.16
2022-11-10T02:36:36.506Z,97582.56
2022-11-10T02:39:03.713Z,97592.16
2022-11-10T02:41:30.066Z,97600.66
2022-11-10T02:43:57.965Z,97606.13
2022-11-10T02:46:24.319Z,97593.53
2022-11-10T02:48:50.834Z,97609.28
2022-11-10T02:51:17.194Z,97599.59
2022-11-10T02:53:43.580Z,97601.69
2022-11-10T02:56:10.260Z,97604.75
2022-11-10T02:58:36.639Z,97595.75
2022-11-10T03:01:06.972Z,97607.69
2022-11-10T03:03:34.115Z,97622.69
2022-11-10T03:06:00.701Z,97627.09
2022-11-10T03:08:27.135Z,97627.38
2022-11-10T03:10:55.549Z,97643.41
2022-11-10T03:13:23.732Z,97651.66
2022-11-10T03:15:50.849Z,97648.28
2022-11-10T03:18:17.815Z,97647.25
2022-11-10T03:20:47.790Z,97665.53
2022-11-10T03:23:14.684Z,97653.72
2022-11-10T03:25:41.174Z,97650.81
2022-11-10T03:28:07.537Z,97660.34
2022-11-10T03:30:34.076Z,97652.88
2022-11-10T03:33:00.452Z,97662.66
2022-11-10T03:35:26.857Z,97659.81
2022-11-10T03:37:53.351Z,97666.53
2022-11-10T03:40:19.743Z,97674.06
2022-11-10T03:42:46.476Z,97675.13
2022-11-10T03:45:14.494Z,97673.84
2022-11-10T03:47:40.950Z,97674.16
2022-11-10T03:50:07.956Z,97675.47
2022-11-10T03:52:34.349Z,97683.97
2022-11-10T03:55:03.366Z,97677.50
2022-11-10T03:57:30.133Z,97676.25
2022-11-10T03:59:56.477Z,97674.41
2022-11-10T04:02:22.827Z,97674.97
2022-11-10T04:05:07.718Z,97677.56
2022-11-10T04:07:52.440Z,97695.63
2022-11-10T04:10:18.904Z,97704.44
2022-11-10T04:13:03.808Z,97703.41
2022-11-10T04:15:42.021Z,97711.66
2022-11-10T04:18:21.623Z,97702.91
2022-11-10T04:20:48.462Z,97722.25
2022-11-10T04:23:27.927Z,97716.09
2022-11-10T04:26:16.980Z,97708.09
2022-11-10T04:28:47.756Z,97722.56
2022-11-10T04:31:16.197Z,97719.44
2022-11-10T04:33:43.759Z,97707.59
2022-11-10T04:36:12.735Z,97710.44
2022-11-10T04:38:39.692Z,97706.06
2022-11-10T04:41:06.706Z,97723.06
2022-11-10T04:43:33.782Z,97731.09
2022-11-10T04:46:00.584Z,97739.63
2022-11-10T04:48:27.926Z,97744.03
2022-11-10T04:50:54.510Z,97742.72
2022-11-10T04:53:21.703Z,97736.78
2022-11-10T04:55:48.443Z,97735.47
2022-11-10T04:58:14.909Z,97738.06
2022-11-10T05:00:42.206Z,97736.00
2022-11-10T05:03:10.449Z,97760.25
2022-11-10T05:05:36.972Z,97756.91
2022-11-10T05:08:03.895Z,97773.44
2022-11-10T05:10:30.416Z,97773.16
2022-11-10T05:12:57.405Z,97789.69
2022-11-10T05:15:25.378Z,97800.25
2022-11-10T05:17:53.061Z,97810.59
2022-11-10T05:20:21.358Z,97790.22
2022-11-10T05:23:09.070Z,97809.56
2022-11-10T05:25:40.578Z,97804.41
2022-11-10T05:28:08.962Z,97820.63
2022-11-10T05:30:35.628Z,97817.03
2022-11-10T05:33:02.613Z,97809.28
2022-11-10T05:35:29.143Z,97817.31
2022-11-10T05:37:55.603Z,97818.31
2022-11-10T05:40:21.983Z,97813.44
2022-11-10T05:42:52.821Z,97815.75
2022-11-10T05:45:21.322Z,97820.13
2022-11-10T05:47:48.432Z,97822.97
2022-11-10T05:50:15.717Z,97828.13
2022-11-10T05:52:49.105Z,97836.16
2022-11-10T05:55:18.894Z,97846.72
2022-11-10T05:57:46.576Z,97849.81
2022-11-10T06:00:18.794Z,97852.09
2022-11-10T06:02:45.243Z,97860.38
2022-11-10T06:05:11.643Z,97858.31
2022-11-10T06:07:38.814Z,97865.53
2022-11-10T06:10:05.632Z,97873.53
2022-11-10T06:12:32.031Z,97885.91
2022-11-10T06:14:58.456Z,97884.88
2022-11-10T06:17:25.554Z,97893.88
2022-11-10T06:19:52.079Z,97886.66
2022-11-10T06:22:19.109Z,97891.53
2022-11-10T06:24:45.500Z,97912.19
2022-11-10T06:27:11.855Z,97904.16
2022-11-10T06:29:38.225Z,97904.66
2022-11-10T06:32:04.592Z,97912.41
2022-11-10T06:34:30.983Z,97925.88
2022-11-10T06:36:57.335Z,97933.34
2022-11-10T06:39:23.713Z,97930.47
2022-11-10T06:41:50.102Z,97923.28
2022-11-10T06:44:16.472Z,97919.63
2022-11-10T06:46:42.868Z,97931.03
2022-11-10T06:49:09.236Z,97950.69
2022-11-10T06:51:35.591Z,97955.09
2022-11-10T06:54:01.932Z,97960.28
2022-11-10T06:56:28.377Z,97949.97
2022-11-10T06:58:55.780Z,97959.00
2022-11-10T07:01:26.298Z,97961.41
2022-11-10T07:04:18.051Z,97961.94
2022-11-10T07:06:39.861Z,97971.25
2022-11-10T07:09:06.321Z,97987.31
2022-11-10T07:11:32.893Z,97986.81
2022-11-10T07:13:59.223Z,97977.78
2022-11-10T07:16:25.589Z,98001.78
2022-11-10T07:18:51.949Z,97995.81
2022-11-10T07:21:18.367Z,97986.97
2022-11-10T07:23:46.730Z,97997.31
2022-11-10T07:26:13.224Z,98014.34
2022-11-10T07:28:39.605Z,98013.84
2022-11-10T07:31:05.966Z,98016.41
2022-11-10T07:33:32.311Z,98014.34
2022-11-10T07:36:03.287Z,98024.63
2022-11-10T07:38:29.931Z,98029.75
2022-11-10T07:40:56.558Z,98026.63
2022-11-10T07:43:25.169Z,98043.94
2022-11-10T07:45:52.916Z,98047.81
2022-11-10T07:48:19.717Z,98044.44
2022-11-10T07:50:46.701Z,98055.53
2022-11-10T07:53:15.696Z,98049.34
2022-11-10T07:55:44.464Z,98059.66
2022-11-10T07:58:15.111Z,98061.97
2022-11-10T08:00:42.308Z,98066.34
2022-11-10T08:03:14.362Z,98055.97
2022-11-10T08:05:40.912Z,98072.53
2022-11-10T08:08:07.962Z,98077.19
2022-11-10T08:10:35.877Z,98076.16
2022-11-10T08:13:05.331Z,98078.22
2022-11-10T08:15:33.246Z,98071.19
2022-11-10T08:18:07.373Z,98083.81
2022-11-10T08:20:34.106Z,98077.91
2022-11-10T08:23:02.745Z,98086.31
2022-11-10T08:25:34.712Z,98088.38
2022-11-10T08:28:13.095Z,98079.03
2022-11-10T08:30:41.331Z,98086.22
2022-11-10T08:33:09.544Z,98082.84
2022-11-10T08:35:39.074Z,98081.28
2022-11-10T08:38:09.574Z,98072.53
2022-11-10T08:40:36.893Z,98094.84
2022-11-10T08:43:07.224Z,98087.13
2022-11-10T08:45:38.515Z,98101.16
2022-11-10T08:48:16.689Z,98103.19
2022-11-10T08:50:43.564Z,98106.31
2022-11-10T08:53:12.629Z,98100.59
2022-11-10T08:55:39.787Z,98105.75
2022-11-10T08:58:07.769Z,98106.47
2022-11-10T09:00:35.104Z,98120.44
2022-11-10T09:03:07.455Z,98124.13
2022-11-10T09:05:35.990Z,98120.75
2022-11-10T09:08:04.054Z,98122.59
2022-11-10T09:10:31.538Z,98123.91
2022-11-10T09:13:01.880Z,98131.69
2022-11-10T09:15:29.476Z,98130.44
2022-11-10T09:18:00.200Z,98139.16
2022-11-10T09:20:31.154Z,98137.88
2022-11-10T09:23:03.567Z,98145.53
2022-11-10T09:25:29.923Z,98143.56
2022-11-10T09:27:56.275Z,98160.34
2022-11-10T09:30:22.871Z,98143.81
2022-11-10T09:32:56.441Z,98144.50
2022-11-10T09:35:23.476Z,98151.41
2022-11-10T09:37:49.867Z,98166.50
2022-11-10T09:40:21.574Z,98170.81
2022-11-10T09:42:48.489Z,98172.72
2022-11-10T09:45:28.771Z,98176.75
2022-11-10T09:48:24.668Z,98194.03
2022-11-10T09:50:56.982Z,98185.66
2022-11-10T09:53:28.621Z,98201.25
2022-11-10T09:56:04.213Z,98206.34
2022-11-10T09:58:46.300Z,98194.63
2022-11-10T10:01:21.613Z,98209.66
2022-11-10T10:03:56.703Z,98201.16
2022-11-10T10:06:23.400Z,98200.88
2022-11-10T10:09:03.749Z,98196.72
2022-11-10T10:11:59.684Z,98206.19
2022-11-10T10:15:10.536Z,98210.06
2022-11-10T10:18:04.968Z,98217.47
2022-11-10T10:20:57.031Z,98203.53
2022-11-10T10:23:54.439Z,98196.53
2022-11-10T10:26:22.951Z,98205.84
2022-11-10T10:28:50.845Z,98199.75
2022-11-10T10:31:21.414Z,98194.66
2022-11-10T10:33:48.424Z,98205.72
2022-11-10T10:36:35.012Z,98210.94
2022-11-10T10:39:07.016Z,98197.75
2022-11-10T10:41:34.595Z,98201.53
2022-11-10T10:44:02.786Z,98207.59
2022-11-10T10:46:32.840Z,98206.94
2022-11-10T10:49:28.020Z,98198.72
2022-11-10T10:52:12.648Z,98204.41
2022-11-10T10:54:39.951Z,98203.53
2022-11-10T10:57:21.403Z,98214.19
2022-11-10T10:59:48.270Z,98212.75
2022-11-10T11:02:26.438Z,98219.22
2022-11-10T11:05:13.978Z,98210.38
2022-11-10T11:07:40.718Z,98214.03
2022-11-10T11:10:20.671Z,98215.50
2022-11-10T11:12:47.121Z,98200.75
2022-11-10T11:15:26.744Z,98214.56
2022-11-10T11:18:10.689Z,98212.50
2022-11-10T11:20:52.213Z,98227.75
2022-11-10T11:23:38.060Z,98224.50
2022-11-10T11:26:23.015Z,98225.06
2022-11-10T11:29:02.537Z,98231.63
2022-11-10T11:31:43.254Z,98233.28
2022-11-10T11:34:29.255Z,98233.59
2022-11-10T11:37:23.788Z,98230.66
2022-11-10T11:40:08.910Z,98237.91
2022-11-10T11:42:54.564Z,98241.88
2022-11-10T11:45:33.208Z,98243.53
2022-11-10T11:48:19.634Z,98246.41
2022-11-10T11:51:05.250Z,98238.84
2022-11-10T11:53:48.425Z,98242.94
2022-11-10T11:56:31.262Z,98242.53
2022-11-10T11:59:20.330Z,98241.47
2022-11-10T12:02:19.644Z,98240.19
2022-11-10T12:04:52.752Z,98230.22
2022-11-10T12:07:50.141Z,98229.91
2022-11-10T12:10:47.668Z,98235.31
2022-11-10T12:13:14.023Z,98243.25
2022-11-10T12:16:08.623Z,98252.69
2022-11-10T12:18:49.706Z,98252.09
2022-11-10T12:21:22.357Z,98258.09
2022-11-10T12:24:26.100Z,98250.91
2022-11-10T12:26:58.095Z,98242.09
2022-11-10T12:29:34.238Z,98253.31
2022-11-10T12:32:15.199Z,98253.47
2022-11-10T12:34:55.887Z,98257.81
2022-11-10T12:37:38.299Z,98257.69
2022-11-10T12:40:14.853Z,98244.59
2022-11-10T12:42:43.695Z,98253.56
2022-11-10T12:45:27.810Z,98258.03
2022-11-10T12:47:55.446Z,98261.91
2022-11-10T12:50:34.200Z,98272.69
2022-11-10T12:53:13.759Z,98273.38
2022-11-10T12:55:49.230Z,98266.84
2022-11-10T12:58:15.702Z,98261.50
2022-11-10T13:00:56.474Z,98275.31
2022-11-10T13:03:37.839Z,98274.16
2022-11-10T13:06:07.110Z,98266.06
2022-11-10T13:08:42.236Z,98269.66
2022-11-10T13:11:11.563Z,98281.34
2022-11-10T13:13:45.833Z,98275.50
2022-11-10T13:16:32.099Z,98274.88
2022-11-10T13:18:58.659Z,98267.91
2022-11-10T13:21:52.749Z,98280.38
2022-11-10T13:24:25.387Z,98280.16
2022-11-10T13:27:03.330Z,98282.69
2022-11-10T13:29:48.003Z,98283.69
2022-11-10T13:32:14.290Z,98285.66
2022-11-10T13:34:45.192Z,98284.31
2022-11-10T13:37:29.766Z,98285.84
2022-11-10T13:40:18.075Z,98281.00
2022-11-10T13:43:04.812Z,98279.31
2022-11-10T13:45:42.602Z,98282.69
2022-11-10T13:48:11.924Z,98284.94
2022-11-10T13:50:49.772Z,98290.72
2022-11-10T13:53:28.718Z,98288.16
2022-11-10T13:55:58.079Z,98278.00
2022-11-10T13:58:28.427Z,98278.88
2022-11-10T14:01:16.741Z,98287.72
2022-11-10T14:03:46.236Z,98291.34
2022-11-10T14:06:18.692Z,98297.03
2022-11-10T14:08:54.140Z,98302.38
2022-11-10T14:11:30.543Z,98299.28
2022-11-10T14:14:03.021Z,98291.09
2022-11-10T14:16:32.712Z,98303.34
2022-11-10T14:19:04.363Z,98304.19
2022-11-10T14:21:58.221Z,98302.75
2022-11-10T14:24:46.165Z,98288.81
2022-11-10T14:27:23.618Z,98302.78
2022-11-10T14:30:06.826Z,98299.09
2022-11-10T14:32:33.225Z,98296.06
2022-11-10T14:35:00.911Z,98291.47
2022-11-10T14:37:29.039Z,98306.00
2022-11-10T14:39:57.754Z,98327.56
2022-11-10T14:42:26.726Z,98317.75
2022-11-10T14:45:06.075Z,98326.81
2022-11-10T14:47:32.485Z,98328.81
2022-11-10T14:50:04.943Z,98338.69
2022-11-10T14:52:31.809Z,98334.81
2022-11-10T14:54:58.382Z,98327.59
2022-11-10T14:57:24.774Z,98344.22
2022-11-10T14:59:52.171Z,98336.97
2022-11-10T15:02:19.575Z,98338.56
2022-11-10T15:04:50.191Z,98330.88
2022-11-10T15:07:17.826Z,98337.41
2022-11-10T15:10:04.808Z,98343.19
2022-11-10T15:12:31.307Z,98340.31
2022-11-10T15:15:00.698Z,98336.78
2022-11-10T15:17:47.380Z,98344.03
2022-11-10T15:20:37.675Z,98340.50
2022-11-10T15:23:14.225Z,98334.34
2022-11-10T15:25:41.142Z,98337.47
2022-11-10T15:28:17.401Z,98341.19
2022-11-10T15:30:56.435Z,98325.66
2022-11-10T15:33:30.484Z,98325.47
2022-11-10T15:36:27.918Z,98342.22
2022-11-10T15:39:15.661Z,98347.50
2022-11-10T15:41:47.022Z,98344.66
2022-11-10T15:44:14.594Z,98354.75
2022-11-10T15:46:41.569Z,98345.69
2022-11-10T15:49:32.528Z,98354.47
2022-11-10T15:52:01.903Z,98355.25
2022-11-10T15:54:34.378Z,98350.91
2022-11-10T15:57:00.903Z,98343.16
2022-11-10T15:59:27.249Z,98350.50
2022-11-10T16:01:53.907Z,98361.09
2022-11-10T16:04:20.342Z,98347.44
2022-11-10T16:06:47.342Z,98347.66
2022-11-10T16:09:14.164Z,98355.81
2022-11-10T16:11:45.570Z,98356.56
2022-11-10T16:14:17.158Z,98357.34
2022-11-10T16:16:43.775Z,98355.84
2022-11-10T16:19:11.100Z,98357.44
2022-11-10T16:21:37.639Z,98367.88
2022-11-10T16:24:04.404Z,98364.72
2022-11-10T16:26:32.031Z,98362.16
2022-11-10T16:28:58.386Z,98349.97
2022-11-10T16:31:26.465Z,98374.38
2022-11-10T16:33:52.846Z,98368.44
2022-11-10T16:36:30.723Z,98385.03
2022-11-10T16:38:57.322Z,98375.22
2022-11-10T16:41:24.044Z,98393.38
2022-11-10T16:43:50.657Z,98390.25
2022-11-10T16:46:22.728Z,98370.31
2022-11-10T16:48:51.179Z,98387.69
2022-11-10T16:51:18.187Z,98396.50
2022-11-10T16:53:45.429Z,98402.25
2022-11-10T16:56:16.720Z,98398.09
2022-11-10T16:58:43.129Z,98411.84
2022-11-10T17:01:16.438Z,98403.56
2022-11-10T17:04:10.471Z,98403.53
2022-11-10T17:06:37.177Z,98387.50
2022-11-10T17:09:12.304Z,98398.41
2022-11-10T17:11:38.671Z,98412.66
2022-11-10T17:14:06.870Z,98415.53
2022-11-10T17:16:36.327Z,98429.50
2022-11-10T17:19:05.373Z,98424.03
2022-11-10T17:21:34.505Z,98419.59
2022-11-10T17:24:02.761Z,98444.69
2022-11-10T17:26:30.497Z,98442.34
2022-11-10T17:28:57.289Z,98442.06
2022-11-10T17:31:23.717Z,98438.91
2022-11-10T17:33:50.187Z,98428.50
2022-11-10T17:36:22.746Z,98435.00
2022-11-10T17:38:50.615Z,98436.56
2022-11-10T17:41:18.897Z,98428.50
2022-11-10T17:43:46.589Z,98445.84
2022-11-10T17:46:13.995Z,98433.66
2022-11-10T17:48:40.715Z,98444.03
2022-11-10T17:51:17.377Z,98448.16
2022-11-10T17:53:43.799Z,98436.69
2022-11-10T17:56:10.154Z,98442.09
2022-11-10T17:58:36.525Z,98445.41
2022-11-10T18:01:07.264Z,98453.66
2022-11-10T18:03:33.692Z,98458.63
2022-11-10T18:06:00.638Z,98441.03
2022-11-10T18:08:26.999Z,98447.47
2022-11-10T18:10:53.417Z,98438.72
2022-11-10T18:13:19.934Z,98453.28
2022-11-10T18:15:47.887Z,98461.84
2022-11-10T18:18:18.204Z,98451.75
2022-11-10T18:20:45.318Z,98461.91
2022-11-10T18:23:12.766Z,98460.59
2022-11-10T18:25:40.391Z,98467.31
2022-11-10T18:28:07.553Z,98473.28
2022-11-10T18:30:35.403Z,98468.34
2022-11-10T18:33:02.894Z,98487.03
2022-11-10T18:35:29.264Z,98469.91
2022-11-10T18:37:55.704Z,98460.31
2022-11-10T18:40:22.052Z,98472.28
2022-11-10T18:42:48.381Z,98456.44
2022-11-10T18:45:14.858Z,98448.88
2022-11-10T18:47:41.214Z,98460.03
2022-11-10T18:50:08.571Z,98470.38
2022-11-10T18:52:34.906Z,98482.81
2022-11-10T18:55:01.306Z,98475.75
2022-11-10T18:57:27.638Z,98485.66
2022-11-10T18:59:54.161Z,98463.84
2022-11-10T19:02:20.540Z,98490.53
2022-11-10T19:04:50.803Z,98489.47
2022-11-10T19:07:19.748Z,98497.75
2022-11-10T19:09:46.163Z,98497.16
2022-11-10T19:12:12.960Z,98478.28
2022-11-10T19:14:40.759Z,98483.97
2022-11-10T19:17:07.263Z,98491.25
2022-11-10T19:19:33.629Z,98496.16
2022-11-10T19:22:00.674Z,98493.50
2022-11-10T19:24:28.277Z,98492.91
2022-11-10T19:26:56.565Z,98504.06
2022-11-10T19:29:22.966Z,98514.34
2022-11-10T19:31:49.871Z,98517.72
2022-11-10T19:34:18.762Z,98515.63
2022-11-10T19:36:49.260Z,98515.16
2022-11-10T19:39:15.620Z,98509.19
2022-11-10T19:41:42.172Z,98521.38
2022-11-10T19:44:08.549Z,98521.94
2022-11-10T19:46:36.910Z,98518.78
2022-11-10T19:49:04.303Z,98522.41
2022-11-10T19:51:30.667Z,98520.56
2022-11-10T19:54:01.702Z,98511.00
2022-11-10T19:56:31.903Z,98522.69
2022-11-10T19:58:59.095Z,98522.47
2022-11-10T20:01:26.252Z,98517.56
2022-11-10T20:03:52.750Z,98506.16
2022-11-10T20:06:22.495Z,98519.41
2022-11-10T20:08:49.757Z,98517.03
2022-11-10T20:11:23.027Z,98511.94
2022-11-10T20:13:54.685Z,98509.34
2022-11-10T20:16:21.943Z,98509.22
2022-11-10T20:18:48.305Z,98512.19
2022-11-10T20:21:17.716Z,98496.94
2022-11-10T20:23:44.305Z,98507.28
2022-11-10T20:26:13.408Z,98509.81
2022-11-10T20:28:40.416Z,98518.59
2022-11-10T20:31:09.879Z,98540.53
2022-11-10T20:33:36.994Z,98547.75
2022-11-10T20:36:09.840Z,98551.47
2022-11-10T20:38:37.350Z,98558.78
2022-11-10T20:41:09.965Z,98568.03
2022-11-10T20:43:38.064Z,98560.72
2022-11-10T20:46:06.571Z,98560.09
2022-11-10T20:48:34.235Z,98543.03
2022-11-10T20:51:01.271Z,98537.84
2022-11-10T20:53:30.696Z,98535.13
2022-11-10T20:56:01.912Z,98542.72
2022-11-10T20:58:29.588Z,98543.34
2022-11-10T21:01:01.155Z,98531.34
2022-11-10T21:03:27.499Z,98537.09
2022-11-10T21:05:55.406Z,98538.94
2022-11-10T21:08:22.020Z,98537.22
2022-11-10T21:10:57.482Z,98548.41
2022-11-10T21:13:25.503Z,98547.28
2022-11-10T21:15:57.243Z,98554.28
2022-11-10T21:18:25.967Z,98538.09
2022-11-10T21:20:52.482Z,98540.50
2022-11-10T21:23:19.071Z,98537.75
2022-11-10T21:25:52.458Z,98546.50
2022-11-10T21:28:18.799Z,98540.13
2022-11-10T21:30:45.154Z,98535.00
2022-11-10T21:33:11.712Z,98532.06
2022-11-10T21:35:38.446Z,98538.94
2022-11-10T21:38:05.428Z,98529.06
2022-11-10T21:40:32.792Z,98520.31
2022-11-10T21:42:59.671Z,98524.25
2022-11-10T21:45:26.078Z,98540.69
2022-11-10T21:47:52.501Z,98536.59
2022-11-10T21:50:19.242Z,98521.59
2022-11-10T21:52:45.582Z,98535.63
2022-11-10T21:55:11.974Z,98538.16
2022-11-10T21:57:38.634Z,98520.84
2022-11-10T22:00:05.597Z,98521.09
2022-11-10T22:02:31.948Z,98526.25
2022-11-10T22:04:58.305Z,98530.06
2022-11-10T22:07:24.714Z,98534.06
2022-11-10T22:10:11.078Z,98535.50
2022-11-10T22:12:55.728Z,98532.25
2022-11-10T22:15:41.017Z,98531.53
2022-11-10T22:18:35.000Z,98529.75
2022-11-10T22:21:02.417Z,98533.38
2022-11-10T22:23:47.174Z,98533.16
2022-11-10T22:26:14.014Z,98545.91
2022-11-10T22:28:41.076Z,98544.03
2022-11-10T22:31:09.004Z,98543.31
2022-11-10T22:33:37.049Z,98537.81
2022-11-10T22:36:05.969Z,98533.31
2022-11-10T22:38:37.938Z,98541.13
2022-11-10T22:41:23.410Z,98534.09
2022-11-10T22:44:05.230Z,98546.47
2022-11-10T22:46:31.518Z,98553.09
2022-11-10T22:48:57.889Z,98538.97
2022-11-10T22:51:26.666Z,98541.84
2022-11-10T22:53:53.085Z,98533.66
2022-11-10T22:56:19.577Z,98534.06
2022-11-10T22:58:46.829Z,98539.56
2022-11-10T23:01:13.598Z,98538.41
2022-11-10T23:03:40.159Z,98550.28
2022-11-10T23:06:07.524Z,98545.69
2022-11-10T23:08:34.144Z,98539.88
2022-11-10T23:11:03.860Z,98555.44
2022-11-10T23:13:30.604Z,98566.91
2022-11-10T23:16:05.753Z,98565.97
2022-11-10T23:18:32.280Z,98547.44
2022-11-10T23:21:00.305Z,98564.16
2022-11-10T23:23:28.668Z,98563.56
2022-11-10T23:26:02.707Z,98547.28
2022-11-10T23:28:31.022Z,98565.19
2022-11-10T23:31:09.357Z,98566.84
2022-11-10T23:33:37.492Z,98559.06
2022-11-10T23:36:05.019Z,98575.94
2022-11-10T23:38:33.699Z,98572.72
2022-11-10T23:41:01.044Z,98576.13
2022-11-10T23:43:28.495Z,98579.50
2022-11-10T23:46:10.823Z,98570.19
2022-11-10T23:48:38.481Z,98573.41
2022-11-10T23:51:06.042Z,98574.75
2022-11-10T23:53:32.583Z,98562.47
2022-11-10T23:56:01.393Z,98570.31
2022-11-10T23:58:28.707Z,98572.81
